createdAt,value
2023-01-08T00:01:51.880Z,14.05
2023-01-08T00:04:21.390Z,13.68
2023-01-08T00:06:49.273Z,15.88
2023-01-08T00:09:17.183Z,14.07
2023-01-08T00:11:45.482Z,11.85
2023-01-08T00:14:13.397Z,14.20
2023-01-08T00:16:44.103Z,12.93
2023-01-08T00:19:12.525Z,15.07
2023-01-08T00:21:41.933Z,9.43
2023-01-08T00:24:09.947Z,12.70
2023-01-08T00:26:37.876Z,15.35
2023-01-08T00:29:05.787Z,12.35
2023-01-08T00:31:33.897Z,9.60
2023-01-08T00:34:01.769Z,12.32
2023-01-08T00:36:29.706Z,12.35
2023-01-08T00:39:00.657Z,11.30
2023-01-08T00:41:28.530Z,13.18
2023-01-08T00:43:56.471Z,10.82
2023-01-08T00:46:24.476Z,10.85
2023-01-08T00:48:52.408Z,9.90
2023-01-08T00:51:20.380Z,12.38
2023-01-08T00:53:48.281Z,11.45
2023-01-08T00:56:19.595Z,12.35
2023-01-08T00:58:47.462Z,13.98
2023-01-08T01:01:16.660Z,10.95
2023-01-08T01:03:45.690Z,10.30
2023-01-08T01:06:15.122Z,11.98
2023-01-08T01:08:44.325Z,13.30
2023-01-08T01:11:18.617Z,13.80
2023-01-08T01:13:48.286Z,13.02
2023-01-08T01:16:16.327Z,12.98
2023-01-08T01:18:44.379Z,11.43
2023-01-08T01:21:13.887Z,11.93
2023-01-08T01:23:41.882Z,12.95
2023-01-08T01:26:16.445Z,15.07
2023-01-08T01:28:44.367Z,15.05
2023-01-08T01:31:14.393Z,15.38
2023-01-08T01:33:42.648Z,13.18
2023-01-08T01:36:12.307Z,14.23
2023-01-08T01:38:40.387Z,16.08
2023-01-08T01:41:08.303Z,16.20
2023-01-08T01:43:38.925Z,15.40
2023-01-08T01:46:19.831Z,14.18
2023-01-08T01:48:51.091Z,16.23
2023-01-08T01:51:19.731Z,17.08
2023-01-08T01:53:47.972Z,18.45
2023-01-08T01:56:16.697Z,16.65
2023-01-08T01:58:44.642Z,16.02
2023-01-08T02:01:13.228Z,14.40
2023-01-08T02:03:42.659Z,16.70
2023-01-08T02:06:21.173Z,17.35
2023-01-08T02:09:00.981Z,16.95
2023-01-08T02:11:38.962Z,16.85
2023-01-08T02:14:12.811Z,14.02
2023-01-08T02:16:47.401Z,12.82
2023-01-08T02:19:25.287Z,14.10
2023-01-08T02:22:04.023Z,14.00
2023-01-08T02:24:44.486Z,14.27
2023-01-08T02:27:15.713Z,13.05
2023-01-08T02:29:44.078Z,13.27
2023-01-08T02:32:12.144Z,18.83
2023-01-08T02:34:40.067Z,13.52
2023-01-08T02:37:09.816Z,13.20
2023-01-08T02:39:56.869Z,13.63
2023-01-08T02:42:36.533Z,10.95
2023-01-08T02:45:15.349Z,12.98
2023-01-08T02:47:47.092Z,13.32
2023-01-08T02:50:20.460Z,9.55
2023-01-08T02:52:57.605Z,13.32
2023-01-08T02:55:27.447Z,9.85
2023-01-08T02:57:57.891Z,12.75
2023-01-08T03:00:26.114Z,11.48
2023-01-08T03:03:04.861Z,11.07
2023-01-08T03:05:33.725Z,10.55
2023-01-08T03:08:02.205Z,12.13
2023-01-08T03:10:33.618Z,8.68
2023-01-08T03:13:07.697Z,10.93
2023-01-08T03:15:40.511Z,11.02
2023-01-08T03:18:12.422Z,8.80
2023-01-08T03:20:40.894Z,11.85
2023-01-08T03:23:11.930Z,9.35
2023-01-08T03:25:45.220Z,8.93
2023-01-08T03:28:20.026Z,9.25
2023-01-08T03:30:49.662Z,9.50
2023-01-08T03:33:20.800Z,8.90
2023-01-08T03:35:52.656Z,7.85
2023-01-08T03:38:23.447Z,8.73
2023-01-08T03:40:57.268Z,9.65
2023-01-08T03:43:26.924Z,6.82
2023-01-08T03:45:59.304Z,7.97
2023-01-08T03:48:30.716Z,7.20
2023-01-08T03:50:58.672Z,6.40
2023-01-08T03:53:26.684Z,7.05
2023-01-08T03:55:54.552Z,5.93
2023-01-08T03:58:22.483Z,6.40
2023-01-08T04:00:51.734Z,7.97
2023-01-08T04:03:19.724Z,7.63
2023-01-08T04:05:48.876Z,5.97
2023-01-08T04:08:16.723Z,5.78
2023-01-08T04:10:44.658Z,5.80
2023-01-08T04:13:12.504Z,5.35
2023-01-08T04:15:40.500Z,5.40
2023-01-08T04:18:09.759Z,4.60
2023-01-08T04:20:37.677Z,5.20
2023-01-08T04:23:05.583Z,5.50
2023-01-08T04:25:33.428Z,4.00
2023-01-08T04:28:01.372Z,7.75
2023-01-08T04:30:29.221Z,4.85
2023-01-08T04:32:57.149Z,5.22
2023-01-08T04:35:26.428Z,4.65
2023-01-08T04:37:56.770Z,7.77
2023-01-08T04:40:27.435Z,5.43
2023-01-08T04:42:57.633Z,7.35
2023-01-08T04:47:57.330Z,4.93
2023-01-08T04:50:27.082Z,4.15
2023-01-08T04:52:54.953Z,4.60
2023-01-08T04:55:22.851Z,4.95
2023-01-08T04:57:50.803Z,4.80
2023-01-08T05:00:19.142Z,6.53
2023-01-08T05:02:47.167Z,4.80
2023-01-08T05:05:15.407Z,5.68
2023-01-08T05:07:44.713Z,4.88
2023-01-08T05:10:12.645Z,3.03
2023-01-08T05:12:40.615Z,4.43
2023-01-08T05:15:09.794Z,5.30
2023-01-08T05:17:37.758Z,6.30
2023-01-08T05:20:05.996Z,5.78
2023-01-08T05:22:33.865Z,5.13
2023-01-08T05:25:03.057Z,6.55
2023-01-08T05:27:30.999Z,3.90
2023-01-08T05:29:58.921Z,4.95
2023-01-08T05:32:26.865Z,4.25
2023-01-08T05:34:54.724Z,4.90
2023-01-08T05:37:22.798Z,4.43
2023-01-08T05:39:50.657Z,5.97
2023-01-08T05:42:19.963Z,7.20
2023-01-08T05:44:47.864Z,5.23
2023-01-08T05:47:15.777Z,4.80
2023-01-08T05:49:43.660Z,3.30
2023-01-08T05:52:11.769Z,4.22
2023-01-08T05:54:39.804Z,5.55
2023-01-08T05:57:07.760Z,4.40
2023-01-08T05:59:37.050Z,4.68
2023-01-08T06:02:05.006Z,4.90
2023-01-08T06:04:32.925Z,6.28
2023-01-08T06:07:01.073Z,4.70
2023-01-08T06:09:29.024Z,2.75
2023-01-08T06:11:58.112Z,4.30
2023-01-08T06:14:26.208Z,6.68
2023-01-08T06:16:55.506Z,3.40
2023-01-08T06:19:23.432Z,3.80
2023-01-08T06:21:51.308Z,4.18
2023-01-08T06:24:19.291Z,4.85
2023-01-08T06:26:47.234Z,3.55
2023-01-08T06:29:15.098Z,3.00
2023-01-08T06:31:45.758Z,5.25
2023-01-08T06:34:15.407Z,2.70
2023-01-08T06:36:45.832Z,3.90
2023-01-08T06:39:16.565Z,4.68
2023-01-08T06:41:45.155Z,2.55
2023-01-08T06:44:13.235Z,4.65
2023-01-08T06:46:41.229Z,3.72
2023-01-08T06:49:09.992Z,3.78
2023-01-08T06:51:39.346Z,3.75
2023-01-08T06:54:07.554Z,4.77
2023-01-08T06:56:48.776Z,2.30
2023-01-08T06:59:20.685Z,3.55
2023-01-08T07:01:48.762Z,3.97
2023-01-08T07:04:16.787Z,3.58
2023-01-08T07:06:46.213Z,3.78
2023-01-08T07:09:14.407Z,2.58
2023-01-08T07:11:43.059Z,3.78
2023-01-08T07:14:11.595Z,2.38
2023-01-08T07:16:39.615Z,2.90
2023-01-08T07:19:07.680Z,2.45
2023-01-08T07:21:35.642Z,3.05
2023-01-08T07:24:06.042Z,3.83
2023-01-08T07:26:34.122Z,3.30
2023-01-08T07:29:02.243Z,3.55
2023-01-08T07:31:30.137Z,4.22
2023-01-08T07:33:58.073Z,4.18
2023-01-08T07:36:26.006Z,3.38
2023-01-08T07:38:53.868Z,4.18
2023-01-08T07:41:23.243Z,3.75
2023-01-08T07:43:51.225Z,3.28
2023-01-08T07:46:19.294Z,4.30
2023-01-08T07:48:47.212Z,5.03
2023-01-08T07:51:15.140Z,4.05
2023-01-08T07:53:43.109Z,5.85
2023-01-08T07:56:11.821Z,3.72
2023-01-08T07:58:41.310Z,5.45
2023-01-08T08:01:11.484Z,3.83
2023-01-08T08:06:08.199Z,5.80
2023-01-08T08:08:36.686Z,5.25
2023-01-08T08:11:04.616Z,5.22
2023-01-08T08:13:32.604Z,6.78
2023-01-08T08:16:05.414Z,7.78
2023-01-08T08:18:33.283Z,7.85
2023-01-08T08:21:01.173Z,7.82
2023-01-08T08:23:29.124Z,9.50
2023-01-08T08:25:57.105Z,6.43
2023-01-08T08:28:25.045Z,8.55
2023-01-08T08:30:53.697Z,8.25
2023-01-08T08:33:23.118Z,9.43
2023-01-08T08:35:51.657Z,10.32
2023-01-08T08:38:20.778Z,11.75
2023-01-08T08:40:49.455Z,13.25
2023-01-08T08:43:17.350Z,9.95
2023-01-08T08:45:45.255Z,12.43
2023-01-08T08:48:13.278Z,11.43
2023-01-08T08:50:42.520Z,13.65
2023-01-08T08:53:11.724Z,13.40
2023-01-08T08:55:39.540Z,10.65
2023-01-08T08:58:10.787Z,15.32
2023-01-08T09:00:38.984Z,11.07
2023-01-08T09:03:07.083Z,12.52
2023-01-08T09:05:36.922Z,13.90
2023-01-08T09:08:06.355Z,11.98
2023-01-08T09:10:34.271Z,14.02
2023-01-08T09:13:02.083Z,16.42
2023-01-08T09:15:30.046Z,14.13
2023-01-08T09:17:58.731Z,14.77
2023-01-08T09:20:27.851Z,15.60
2023-01-08T09:22:55.802Z,10.98
2023-01-08T09:25:24.983Z,14.82
2023-01-08T09:28:00.594Z,11.13
2023-01-08T09:30:28.855Z,13.10
2023-01-08T09:33:02.329Z,13.63
2023-01-08T09:35:31.000Z,13.00
2023-01-08T09:37:58.987Z,11.88
2023-01-08T09:40:36.771Z,9.10
2023-01-08T09:43:06.171Z,10.88
2023-01-08T09:45:37.207Z,11.10
2023-01-08T09:48:08.672Z,13.35
2023-01-08T09:50:37.685Z,12.73
2023-01-08T09:53:05.581Z,13.82
2023-01-08T09:55:35.518Z,11.57
2023-01-08T09:58:03.658Z,13.07
2023-01-08T10:00:34.908Z,14.75
2023-01-08T10:03:03.193Z,8.80
2023-01-08T10:05:31.651Z,17.17
2023-01-08T10:07:59.643Z,14.13
2023-01-08T10:10:30.712Z,14.68
2023-01-08T10:13:00.538Z,17.05
2023-01-08T10:15:28.551Z,17.52
2023-01-08T10:18:03.854Z,17.15
2023-01-08T10:20:32.600Z,19.23
2023-01-08T10:23:11.594Z,20.83
2023-01-08T10:25:51.239Z,19.83
2023-01-08T10:28:23.687Z,20.15
2023-01-08T10:30:53.215Z,18.73
2023-01-08T10:33:25.429Z,21.63
2023-01-08T10:35:58.694Z,22.70
2023-01-08T10:38:33.272Z,20.45
2023-01-08T10:41:04.559Z,24.10
2023-01-08T10:43:37.892Z,28.38
2023-01-08T10:46:08.627Z,25.88
2023-01-08T10:48:39.915Z,27.67
2023-01-08T10:51:15.473Z,24.52
2023-01-08T10:53:43.787Z,44.03
2023-01-08T10:56:21.591Z,44.08
2023-01-08T10:58:52.304Z,43.40
2023-01-08T11:01:25.020Z,58.63
2023-01-08T11:03:55.360Z,45.47
2023-01-08T11:08:54.710Z,53.70
2023-01-08T11:11:24.549Z,61.10
2023-01-08T11:13:58.828Z,68.57
2023-01-08T11:16:36.603Z,69.03
2023-01-08T11:19:05.966Z,76.00
2023-01-08T11:21:36.234Z,70.43
2023-01-08T11:26:37.097Z,62.38
2023-01-08T11:29:13.863Z,67.47
2023-01-08T11:31:48.551Z,89.65
2023-01-08T11:34:23.123Z,83.40
2023-01-08T11:36:56.373Z,81.32
2023-01-08T11:39:24.428Z,78.60
2023-01-08T11:42:09.610Z,78.93
2023-01-08T11:44:51.759Z,87.45
2023-01-08T11:47:32.509Z,82.30
2023-01-08T11:50:18.450Z,91.70
2023-01-08T11:52:56.761Z,86.82
2023-01-08T11:55:42.410Z,97.53
2023-01-08T11:58:34.685Z,100.55
2023-01-08T12:01:23.146Z,86.70
2023-01-08T12:03:55.978Z,89.90
2023-01-08T12:06:35.670Z,101.15
2023-01-08T12:09:14.674Z,106.47
2023-01-08T12:11:50.856Z,116.30
2023-01-08T12:14:31.622Z,106.45
2023-01-08T12:17:15.385Z,106.22
2023-01-08T12:19:58.260Z,107.18
2023-01-08T12:22:37.495Z,90.45
2023-01-08T12:25:25.642Z,105.25
2023-01-08T12:28:10.331Z,101.32
2023-01-08T12:30:48.182Z,97.38
2023-01-08T12:33:27.780Z,101.93
2023-01-08T12:36:01.494Z,110.82
2023-01-08T12:38:33.818Z,121.15
2023-01-08T12:41:06.643Z,111.32
2023-01-08T12:43:44.869Z,110.97
2023-01-08T12:46:17.008Z,111.00
2023-01-08T12:48:51.697Z,112.53
2023-01-08T12:51:27.595Z,122.03
2023-01-08T12:54:04.159Z,116.35
2023-01-08T12:56:44.983Z,123.03
2023-01-08T12:59:22.773Z,108.50
2023-01-08T13:01:56.870Z,108.25
2023-01-08T13:04:26.171Z,111.53
2023-01-08T13:07:01.915Z,115.25
2023-01-08T13:09:31.728Z,114.15
2023-01-08T13:12:01.931Z,136.05
2023-01-08T13:14:30.044Z,123.78
2023-01-08T13:17:07.837Z,110.85
2023-01-08T13:19:43.540Z,118.75
2023-01-08T13:22:26.310Z,111.05
2023-01-08T13:25:08.794Z,121.20
2023-01-08T13:27:36.895Z,109.88
2023-01-08T13:30:25.693Z,110.53
2023-01-08T13:32:54.147Z,105.20
2023-01-08T13:35:26.531Z,121.65
2023-01-08T13:38:13.434Z,108.68
2023-01-08T13:40:56.480Z,220.98
2023-01-08T13:43:29.085Z,111.28
2023-01-08T13:46:15.753Z,116.97
2023-01-08T13:48:54.100Z,105.05
2023-01-08T13:51:34.868Z,114.78
2023-01-08T13:54:13.844Z,112.15
2023-01-08T13:56:42.123Z,124.13
2023-01-08T13:59:22.251Z,124.25
2023-01-08T14:01:54.108Z,119.25
2023-01-08T14:04:22.829Z,116.97
2023-01-08T14:06:52.329Z,115.28
2023-01-08T14:09:23.707Z,121.22
2023-01-08T14:11:55.794Z,117.30
2023-01-08T14:14:25.275Z,132.27
2023-01-08T14:16:55.512Z,153.43
2023-01-08T14:21:54.979Z,113.55
2023-01-08T14:24:25.342Z,125.10
2023-01-08T14:26:54.822Z,117.13
2023-01-08T14:29:24.604Z,116.97
2023-01-08T14:31:55.525Z,132.63
2023-01-08T14:34:26.024Z,128.55
2023-01-08T14:36:56.678Z,118.90
2023-01-08T14:39:26.563Z,119.80
2023-01-08T14:42:13.989Z,126.85
2023-01-08T14:44:44.467Z,132.27
2023-01-08T14:47:19.393Z,120.50
2023-01-08T14:49:53.085Z,120.28
2023-01-08T14:52:23.019Z,120.68
2023-01-08T14:54:54.430Z,127.43
2023-01-08T14:57:24.221Z,114.03
2023-01-08T14:59:57.328Z,110.38
2023-01-08T15:02:32.512Z,110.88
2023-01-08T15:05:14.152Z,123.72
2023-01-08T15:07:45.413Z,220.95
2023-01-08T15:10:36.039Z,136.55
2023-01-08T15:13:07.460Z,114.18
2023-01-08T15:15:38.017Z,110.13
2023-01-08T15:18:08.999Z,119.85
2023-01-08T15:20:37.640Z,119.50
2023-01-08T15:23:07.078Z,113.43
2023-01-08T15:25:34.992Z,95.82
2023-01-08T15:28:04.941Z,95.82
2023-01-08T15:30:37.905Z,98.63
2023-01-08T15:33:17.229Z,86.13
2023-01-08T15:35:46.056Z,102.00
2023-01-08T15:38:15.930Z,85.70
2023-01-08T15:40:44.744Z,76.25
2023-01-08T15:43:13.905Z,96.38
2023-01-08T15:45:43.165Z,95.35
2023-01-08T15:48:12.019Z,88.03
2023-01-08T15:50:41.527Z,95.30
2023-01-08T15:53:17.231Z,86.03
2023-01-08T15:55:46.975Z,71.45
2023-01-08T15:58:16.197Z,77.95
2023-01-08T16:00:46.068Z,80.43
2023-01-08T16:03:14.910Z,67.32
2023-01-08T16:05:43.011Z,83.35
2023-01-08T16:08:12.063Z,70.10
2023-01-08T16:10:41.344Z,76.25
2023-01-08T16:13:11.848Z,75.30
2023-01-08T16:15:40.715Z,70.55
2023-01-08T16:18:08.635Z,69.30
2023-01-08T16:20:36.832Z,71.07
2023-01-08T16:23:04.695Z,60.42
2023-01-08T16:25:32.695Z,69.70
2023-01-08T16:28:03.123Z,77.65
2023-01-08T16:30:31.042Z,101.47
2023-01-08T16:32:58.944Z,235.48
2023-01-08T16:35:26.895Z,88.70
2023-01-08T16:37:55.958Z,112.82
2023-01-08T16:40:23.914Z,226.35
2023-01-08T16:42:51.752Z,216.30
2023-01-08T16:45:21.026Z,191.35
2023-01-08T16:47:48.943Z,96.63
2023-01-08T16:50:17.189Z,104.38
2023-01-08T16:52:45.122Z,85.95
2023-01-08T16:55:13.037Z,114.20
2023-01-08T16:57:40.939Z,73.93
2023-01-08T17:00:10.113Z,86.18
2023-01-08T17:02:39.556Z,84.43
2023-01-08T17:05:08.213Z,68.93
2023-01-08T17:07:36.389Z,67.95
2023-01-08T17:10:04.697Z,80.03
2023-01-08T17:12:32.674Z,45.65
2023-01-08T17:15:00.530Z,65.85
2023-01-08T17:17:28.455Z,48.03
2023-01-08T17:19:57.743Z,59.97
2023-01-08T17:22:25.675Z,44.15
2023-01-08T17:24:53.533Z,48.10
2023-01-08T17:27:21.506Z,45.22
2023-01-08T17:29:49.471Z,38.10
2023-01-08T17:32:17.412Z,50.00
2023-01-08T17:34:45.392Z,49.75
2023-01-08T17:37:14.890Z,40.63
2023-01-08T17:39:43.776Z,29.13
2023-01-08T17:42:26.892Z,25.55
2023-01-08T17:44:57.108Z,29.80
2023-01-08T17:47:25.360Z,28.50
2023-01-08T17:49:54.840Z,26.70
2023-01-08T17:52:26.049Z,26.95
2023-01-08T17:54:54.155Z,24.85
2023-01-08T17:57:22.561Z,28.50
2023-01-08T17:59:50.533Z,26.25
2023-01-08T18:02:19.039Z,33.58
2023-01-08T18:04:47.019Z,25.17
2023-01-08T18:07:15.387Z,25.90
2023-01-08T18:09:45.075Z,23.25
2023-01-08T18:12:13.042Z,21.40
2023-01-08T18:14:41.618Z,18.70
2023-01-08T18:17:09.574Z,23.98
2023-01-08T18:19:37.568Z,20.35
2023-01-08T18:22:05.631Z,22.10
2023-01-08T18:24:34.904Z,27.33
2023-01-08T18:27:04.308Z,25.85
2023-01-08T18:29:32.303Z,22.30
2023-01-08T18:32:00.287Z,26.10
2023-01-08T18:34:28.294Z,23.52
2023-01-08T18:36:56.225Z,28.92
2023-01-08T18:39:26.565Z,27.88
2023-01-08T18:44:43.230Z,31.80
2023-01-08T18:47:12.501Z,27.65
2023-01-08T18:49:40.340Z,23.10
2023-01-08T18:52:08.643Z,27.80
2023-01-08T18:54:36.493Z,28.65
2023-01-08T18:57:04.525Z,29.55
2023-01-08T18:59:32.493Z,31.40
2023-01-08T19:02:01.958Z,28.48
2023-01-08T19:04:30.051Z,24.33
2023-01-08T19:06:58.090Z,28.63
2023-01-08T19:09:25.970Z,30.73
2023-01-08T19:11:53.919Z,29.38
2023-01-08T19:14:21.739Z,28.48
2023-01-08T19:16:51.492Z,26.05
2023-01-08T19:19:21.173Z,24.27
2023-01-08T19:21:49.054Z,26.95
2023-01-08T19:24:16.966Z,20.83
2023-01-08T19:26:46.309Z,26.10
2023-01-08T19:29:14.381Z,23.13
2023-01-08T19:31:42.456Z,18.90
2023-01-08T19:34:11.555Z,24.70
2023-01-08T19:36:43.568Z,23.00
2023-01-08T19:39:11.749Z,24.48
2023-01-08T19:41:57.299Z,23.98
2023-01-08T19:44:25.253Z,25.35
2023-01-08T19:46:53.215Z,23.75
2023-01-08T19:49:21.087Z,22.40
2023-01-08T19:51:51.021Z,23.92
2023-01-08T19:54:22.148Z,23.65
2023-01-08T19:56:50.249Z,23.13
2023-01-08T19:59:18.104Z,21.83
2023-01-08T20:01:46.355Z,21.73
2023-01-08T20:04:14.255Z,18.63
2023-01-08T20:06:42.193Z,23.15
2023-01-08T20:09:11.509Z,24.15
2023-01-08T20:11:39.415Z,22.17
2023-01-08T20:14:07.447Z,15.45
2023-01-08T20:16:35.342Z,19.20
2023-01-08T20:19:04.812Z,17.30
2023-01-08T20:21:34.320Z,19.00
2023-01-08T20:24:06.837Z,19.52
2023-01-08T20:26:38.257Z,17.23
2023-01-08T20:29:06.873Z,15.10
2023-01-08T20:31:35.132Z,17.60
2023-01-08T20:34:05.112Z,16.95
2023-01-08T20:36:35.202Z,17.80
2023-01-08T20:39:05.278Z,18.42
2023-01-08T20:41:33.132Z,21.08
2023-01-08T20:44:03.654Z,19.75
2023-01-08T20:46:31.550Z,14.23
2023-01-08T20:49:02.892Z,19.80
2023-01-08T20:51:31.017Z,19.08
2023-01-08T20:53:59.072Z,14.45
2023-01-08T20:56:26.985Z,18.20
2023-01-08T20:58:54.977Z,14.30
2023-01-08T21:01:25.934Z,15.35
2023-01-08T21:03:56.839Z,13.30
2023-01-08T21:06:28.099Z,12.88
2023-01-08T21:08:59.175Z,16.13
2023-01-08T21:11:27.484Z,15.20
2023-01-08T21:13:56.627Z,18.80
2023-01-08T21:16:28.495Z,14.50
2023-01-08T21:18:56.860Z,20.00
2023-01-08T21:21:26.887Z,13.48
2023-01-08T21:23:54.809Z,13.55
2023-01-08T21:26:22.793Z,11.95
2023-01-08T21:28:51.077Z,10.43
2023-01-08T21:31:20.668Z,15.20
2023-01-08T21:33:51.321Z,15.98
2023-01-08T21:36:21.439Z,15.05
2023-01-08T21:38:49.941Z,14.25
2023-01-08T21:41:33.531Z,16.13
2023-01-08T21:44:33.952Z,13.25
2023-01-08T21:47:02.657Z,15.45
2023-01-08T21:49:32.409Z,16.20
2023-01-08T21:52:17.993Z,17.70
2023-01-08T21:54:45.826Z,18.10
2023-01-08T21:57:13.746Z,19.48
2023-01-08T21:59:41.675Z,15.30
2023-01-08T22:02:15.040Z,18.65
2023-01-08T22:04:45.028Z,19.40
2023-01-08T22:07:13.408Z,17.60
2023-01-08T22:09:41.615Z,15.50
2023-01-08T22:12:09.798Z,19.63
2023-01-08T22:14:37.954Z,16.90
2023-01-08T22:17:08.414Z,15.77
2023-01-08T22:19:37.907Z,18.17
2023-01-08T22:22:10.278Z,15.88
2023-01-08T22:24:38.913Z,16.02
2023-01-08T22:27:07.873Z,15.65
2023-01-08T22:29:36.582Z,19.77
2023-01-08T22:32:04.863Z,21.00
2023-01-08T22:34:33.437Z,16.58
2023-01-08T22:37:01.641Z,15.75
2023-01-08T22:39:31.109Z,19.20
2023-01-08T22:41:59.114Z,20.95
2023-01-08T22:44:27.167Z,18.20
2023-01-08T22:46:55.035Z,15.48
2023-01-08T22:49:22.884Z,16.27
2023-01-08T22:51:50.862Z,18.58
2023-01-08T22:54:18.955Z,14.93
2023-01-08T22:56:50.618Z,14.93
2023-01-08T22:59:19.143Z,18.75
2023-01-08T23:01:47.124Z,16.73
2023-01-08T23:04:15.301Z,18.38
2023-01-08T23:06:43.371Z,18.23
2023-01-08T23:09:11.369Z,18.50
2023-01-08T23:11:40.947Z,18.60
2023-01-08T23:14:14.131Z,16.63
2023-01-08T23:16:42.105Z,15.38
2023-01-08T23:19:10.039Z,18.45
2023-01-08T23:21:38.682Z,20.40
2023-01-08T23:24:08.496Z,17.15
2023-01-08T23:26:36.432Z,17.00
2023-01-08T23:29:04.686Z,18.42
2023-01-08T23:31:37.607Z,19.33
2023-01-08T23:34:06.013Z,21.33
2023-01-08T23:36:34.114Z,18.75
2023-01-08T23:39:02.117Z,15.77
2023-01-08T23:41:34.714Z,17.20
2023-01-08T23:44:05.408Z,19.45
2023-01-08T23:49:02.514Z,23.08
2023-01-08T23:51:31.078Z,21.67
2023-01-08T23:53:58.955Z,18.25
2023-01-08T23:56:26.989Z,17.48
2023-01-08T23:58:55.202Z,18.63
